IBE1245 LEBB-LECO
Flight info
| Callsign | IBE1245 |
|---|---|
| Flight time | 0h 45m |
| Altitude | 33000 |
| Route | CALCE6A CALCE M190 LASKU DCT VES/N0393F230 M190 ROXER ROXER3J |
| Aircraft | A320/M-VGDW/C |
Departure
| Time | 2026-04-20 19:59 |
|---|---|
| Airport | Bilbao Airport (LEBB) |
Arrival
| Time | 2026-04-20 20:45 |
|---|---|
| Airport | A Coruña Airport (LECO) |
| Time | Latitude | Longitude | Altitude | Speed | Heading |
|---|---|---|---|---|---|
| 2026-04-20 19:44 | 43.30466 | -2.90934 | 100 ft | 0 kts | 355° |
| 2026-04-20 19:51 | 43.30462 | -2.90934 | 100 ft | 2 kts | 355° |
| 2026-04-20 19:51 | 43.30445 | -2.90932 | 125 ft | 2 kts | 355° |
| 2026-04-20 19:52 | 43.30428 | -2.90931 | 127 ft | 2 kts | 35° |
| 2026-04-20 19:52 | 43.30421 | -2.90939 | 123 ft | 0 kts | 75° |
| 2026-04-20 19:54 | 43.30423 | -2.90926 | 125 ft | 7 kts | 80° |
| 2026-04-20 19:54 | 43.30416 | -2.90865 | 126 ft | 6 kts | 102° |
| 2026-04-20 19:54 | 43.30408 | -2.90816 | 125 ft | 5 kts | 102° |
| 2026-04-20 19:55 | 43.30382 | -2.90725 | 125 ft | 11 kts | 114° |
| 2026-04-20 19:55 | 43.30349 | -2.90633 | 124 ft | 10 kts | 120° |
| 2026-04-20 19:55 | 43.30293 | -2.90567 | 123 ft | 12 kts | 145° |
| 2026-04-20 19:55 | 43.30227 | -2.90528 | 126 ft | 10 kts | 187° |
| 2026-04-20 19:56 | 43.30171 | -2.90563 | 125 ft | 8 kts | 205° |
| 2026-04-20 19:56 | 43.30125 | -2.90575 | 127 ft | 5 kts | 156° |
| 2026-04-20 19:56 | 43.30108 | -2.90543 | 127 ft | 7 kts | 122° |
| 2026-04-20 19:56 | 43.30079 | -2.90468 | 127 ft | 9 kts | 116° |
| 2026-04-20 19:57 | 43.30028 | -2.90326 | 124 ft | 23 kts | 116° |
| 2026-04-20 19:57 | 43.29956 | -2.90131 | 126 ft | 23 kts | 117° |
| 2026-04-20 19:57 | 43.29881 | -2.89924 | 127 ft | 25 kts | 116° |
| 2026-04-20 19:57 | 43.29802 | -2.89708 | 126 ft | 26 kts | 117° |
| 2026-04-20 19:58 | 43.29747 | -2.89562 | 126 ft | 12 kts | 118° |
| 2026-04-20 19:58 | 43.29695 | -2.89492 | 127 ft | 10 kts | 174° |
| 2026-04-20 19:58 | 43.29649 | -2.89575 | 125 ft | 15 kts | 253° |
| 2026-04-20 19:58 | 43.29626 | -2.89731 | 127 ft | 17 kts | 284° |
| 2026-04-20 19:59 | 43.29702 | -2.89941 | 126 ft | 48 kts | 296° |
| 2026-04-20 19:59 | 43.29984 | -2.90714 | 125 ft | 130 kts | 296° |
| 2026-04-20 19:59 | 43.30485 | -2.92072 | 300 ft | 177 kts | 297° |
| 2026-04-20 19:59 | 43.31038 | -2.93580 | 1280 ft | 176 kts | 296° |
| 2026-04-20 20:00 | 43.31574 | -2.95066 | 2031 ft | 178 kts | 297° |
| 2026-04-20 20:00 | 43.32214 | -2.96615 | 2390 ft | 195 kts | 307° |
| 2026-04-20 20:00 | 43.33192 | -2.97968 | 2725 ft | 213 kts | 319° |
| 2026-04-20 20:00 | 43.34356 | -2.99426 | 3060 ft | 239 kts | 317° |
| 2026-04-20 20:01 | 43.35613 | -3.01086 | 3516 ft | 261 kts | 316° |
| 2026-04-20 20:01 | 43.36938 | -3.02863 | 4267 ft | 269 kts | 316° |
| 2026-04-20 20:01 | 43.38288 | -3.04683 | 5117 ft | 274 kts | 316° |
| 2026-04-20 20:01 | 43.39642 | -3.06544 | 6001 ft | 276 kts | 310° |
| 2026-04-20 20:02 | 43.40581 | -3.08828 | 6846 ft | 277 kts | 285° |
| 2026-04-20 20:02 | 43.40760 | -3.11442 | 7686 ft | 277 kts | 262° |
| 2026-04-20 20:02 | 43.40173 | -3.13947 | 8545 ft | 278 kts | 240° |
| 2026-04-20 20:02 | 43.39137 | -3.16149 | 9410 ft | 279 kts | 237° |
| 2026-04-20 20:03 | 43.38067 | -3.18379 | 10202 ft | 281 kts | 239° |
| 2026-04-20 20:03 | 43.37110 | -3.20839 | 10493 ft | 304 kts | 245° |
| 2026-04-20 20:03 | 43.36428 | -3.23682 | 10746 ft | 324 kts | 261° |
| 2026-04-20 20:03 | 43.36244 | -3.26801 | 11303 ft | 332 kts | 268° |
| 2026-04-20 20:04 | 43.36294 | -3.29993 | 11990 ft | 336 kts | 274° |
| 2026-04-20 20:04 | 43.36596 | -3.33193 | 12691 ft | 340 kts | 278° |
| 2026-04-20 20:04 | 43.36989 | -3.36412 | 13388 ft | 344 kts | 279° |
| 2026-04-20 20:04 | 43.37434 | -3.39615 | 14030 ft | 347 kts | 281° |
| 2026-04-20 20:05 | 43.37922 | -3.42879 | 14646 ft | 350 kts | 281° |
| 2026-04-20 20:05 | 43.38427 | -3.46169 | 15286 ft | 353 kts | 281° |
| 2026-04-20 20:05 | 43.38939 | -3.49485 | 15913 ft | 356 kts | 281° |
| 2026-04-20 20:05 | 43.39451 | -3.52823 | 16541 ft | 358 kts | 281° |
| 2026-04-20 20:06 | 43.39963 | -3.56189 | 17160 ft | 361 kts | 280° |
| 2026-04-20 20:06 | 43.40471 | -3.59584 | 17765 ft | 364 kts | 280° |
| 2026-04-20 20:06 | 43.40979 | -3.63007 | 18354 ft | 367 kts | 280° |
| 2026-04-20 20:06 | 43.41482 | -3.66408 | 18863 ft | 369 kts | 280° |
| 2026-04-20 20:07 | 43.41996 | -3.69880 | 19372 ft | 372 kts | 280° |
| 2026-04-20 20:07 | 43.42513 | -3.73385 | 19873 ft | 375 kts | 280° |
| 2026-04-20 20:07 | 43.43031 | -3.76911 | 20333 ft | 378 kts | 280° |
| 2026-04-20 20:07 | 43.43551 | -3.80468 | 20811 ft | 381 kts | 280° |
| 2026-04-20 20:08 | 43.44075 | -3.84049 | 21274 ft | 384 kts | 280° |
| 2026-04-20 20:08 | 43.44604 | -3.87666 | 21724 ft | 387 kts | 280° |
| 2026-04-20 20:08 | 43.45052 | -3.91281 | 22180 ft | 389 kts | 275° |
| 2026-04-20 20:08 | 43.45291 | -3.95005 | 22624 ft | 392 kts | 274° |
| 2026-04-20 20:09 | 43.45523 | -3.98754 | 23071 ft | 395 kts | 274° |
| 2026-04-20 20:09 | 43.45754 | -4.02541 | 23504 ft | 398 kts | 274° |
| 2026-04-20 20:09 | 43.45985 | -4.06347 | 23885 ft | 401 kts | 274° |
| 2026-04-20 20:09 | 43.46219 | -4.10173 | 24275 ft | 402 kts | 274° |
| 2026-04-20 20:10 | 43.46455 | -4.14021 | 24674 ft | 404 kts | 274° |
| 2026-04-20 20:10 | 43.46692 | -4.17876 | 25065 ft | 405 kts | 274° |
| 2026-04-20 20:10 | 43.46930 | -4.21747 | 25450 ft | 407 kts | 274° |
| 2026-04-20 20:10 | 43.47163 | -4.25578 | 25820 ft | 408 kts | 274° |
| 2026-04-20 20:11 | 43.47397 | -4.29478 | 26199 ft | 409 kts | 274° |
| 2026-04-20 20:11 | 43.47629 | -4.33387 | 26565 ft | 411 kts | 274° |
| 2026-04-20 20:11 | 43.47850 | -4.37316 | 26935 ft | 412 kts | 274° |
| 2026-04-20 20:11 | 43.48046 | -4.41257 | 27294 ft | 414 kts | 273° |
| 2026-04-20 20:12 | 43.48227 | -4.45218 | 27649 ft | 415 kts | 273° |
| 2026-04-20 20:12 | 43.48404 | -4.49193 | 28002 ft | 417 kts | 273° |
| 2026-04-20 20:12 | 43.48587 | -4.53182 | 28351 ft | 418 kts | 273° |
| 2026-04-20 20:13 | 43.49004 | -4.61145 | 29018 ft | 421 kts | 274° |
| 2026-04-20 20:13 | 43.49229 | -4.65176 | 29332 ft | 423 kts | 274° |
| 2026-04-20 20:13 | 43.49458 | -4.69220 | 29634 ft | 425 kts | 274° |
| 2026-04-20 20:13 | 43.49685 | -4.73284 | 29918 ft | 426 kts | 274° |
| 2026-04-20 20:14 | 43.50120 | -4.81419 | 30015 ft | 426 kts | 273° |
| 2026-04-20 20:14 | 43.50532 | -4.89497 | 30014 ft | 425 kts | 273° |
| 2026-04-20 20:15 | 43.50950 | -4.97622 | 30014 ft | 425 kts | 273° |
| 2026-04-20 20:15 | 43.51358 | -5.05725 | 30011 ft | 423 kts | 273° |
| 2026-04-20 20:16 | 43.51765 | -5.13930 | 30017 ft | 437 kts | 273° |
| 2026-04-20 20:16 | 43.52177 | -5.22361 | 30008 ft | 448 kts | 273° |
| 2026-04-20 20:17 | 43.52591 | -5.30961 | 30008 ft | 450 kts | 273° |
| 2026-04-20 20:17 | 43.53007 | -5.39564 | 30001 ft | 449 kts | 273° |
| 2026-04-20 20:18 | 43.53404 | -5.48151 | 30004 ft | 449 kts | 273° |
| 2026-04-20 20:18 | 43.53791 | -5.56750 | 29996 ft | 449 kts | 273° |
| 2026-04-20 20:19 | 43.54171 | -5.65287 | 29986 ft | 449 kts | 272° |
| 2026-04-20 20:19 | 43.54553 | -5.73883 | 29985 ft | 449 kts | 272° |
| 2026-04-20 20:20 | 43.54932 | -5.82464 | 29971 ft | 448 kts | 272° |
| 2026-04-20 20:20 | 43.55305 | -5.91046 | 29975 ft | 448 kts | 272° |
| 2026-04-20 20:21 | 43.55461 | -5.99627 | 29976 ft | 447 kts | 264° |
| 2026-04-20 20:21 | 43.53919 | -6.07843 | 29977 ft | 448 kts | 251° |
| 2026-04-20 20:22 | 43.51861 | -6.15916 | 29968 ft | 443 kts | 251° |
| 2026-04-20 20:22 | 43.50872 | -6.19841 | 29914 ft | 425 kts | 251° |
| 2026-04-20 20:22 | 43.49924 | -6.23613 | 29766 ft | 409 kts | 251° |
| 2026-04-20 20:23 | 43.49021 | -6.27210 | 29293 ft | 402 kts | 251° |
| 2026-04-20 20:23 | 43.48113 | -6.30820 | 28990 ft | 392 kts | 251° |
| 2026-04-20 20:23 | 43.47230 | -6.34318 | 28682 ft | 383 kts | 251° |
| 2026-04-20 20:23 | 43.46369 | -6.37708 | 28212 ft | 378 kts | 251° |
| 2026-04-20 20:24 | 43.45504 | -6.41106 | 27694 ft | 375 kts | 251° |
| 2026-04-20 20:24 | 43.44642 | -6.44482 | 27159 ft | 372 kts | 251° |
| 2026-04-20 20:24 | 43.43786 | -6.47833 | 26628 ft | 370 kts | 250° |
| 2026-04-20 20:24 | 43.42935 | -6.51164 | 26127 ft | 368 kts | 250° |
| 2026-04-20 20:25 | 43.42087 | -6.54478 | 25624 ft | 366 kts | 250° |
| 2026-04-20 20:25 | 43.41244 | -6.57765 | 25125 ft | 364 kts | 250° |
| 2026-04-20 20:25 | 43.40401 | -6.61040 | 24632 ft | 362 kts | 250° |
| 2026-04-20 20:25 | 43.39573 | -6.64252 | 24151 ft | 360 kts | 250° |
| 2026-04-20 20:26 | 43.38741 | -6.67489 | 23688 ft | 359 kts | 250° |
| 2026-04-20 20:26 | 43.37924 | -6.70720 | 23167 ft | 357 kts | 250° |
| 2026-04-20 20:26 | 43.37116 | -6.73936 | 22654 ft | 355 kts | 250° |
| 2026-04-20 20:26 | 43.36311 | -6.77133 | 22169 ft | 353 kts | 250° |
| 2026-04-20 20:27 | 43.35511 | -6.80305 | 21704 ft | 350 kts | 250° |
| 2026-04-20 20:27 | 43.34714 | -6.83457 | 21244 ft | 348 kts | 249° |
| 2026-04-20 20:27 | 43.33923 | -6.86588 | 20810 ft | 346 kts | 249° |
| 2026-04-20 20:27 | 43.33135 | -6.89693 | 20386 ft | 343 kts | 249° |
| 2026-04-20 20:28 | 43.32350 | -6.92774 | 19968 ft | 341 kts | 249° |
| 2026-04-20 20:28 | 43.31577 | -6.95800 | 19567 ft | 339 kts | 249° |
| 2026-04-20 20:28 | 43.30798 | -6.98845 | 19155 ft | 337 kts | 249° |
| 2026-04-20 20:28 | 43.30026 | -7.01871 | 18754 ft | 335 kts | 249° |
| 2026-04-20 20:29 | 43.29257 | -7.04885 | 18350 ft | 334 kts | 248° |
| 2026-04-20 20:29 | 43.28491 | -7.07880 | 17915 ft | 332 kts | 248° |
| 2026-04-20 20:29 | 43.27729 | -7.10853 | 17483 ft | 329 kts | 248° |
| 2026-04-20 20:29 | 43.26976 | -7.13791 | 17258 ft | 322 kts | 248° |
| 2026-04-20 20:30 | 43.26246 | -7.16648 | 17198 ft | 314 kts | 248° |
| 2026-04-20 20:30 | 43.25533 | -7.19464 | 17214 ft | 312 kts | 248° |
| 2026-04-20 20:30 | 43.24815 | -7.22294 | 17138 ft | 317 kts | 248° |
| 2026-04-20 20:30 | 43.24078 | -7.25121 | 17158 ft | 321 kts | 248° |
| 2026-04-20 20:31 | 43.23305 | -7.28023 | 17183 ft | 326 kts | 247° |
| 2026-04-20 20:31 | 43.22553 | -7.30969 | 17228 ft | 330 kts | 249° |
| 2026-04-20 20:31 | 43.21876 | -7.33986 | 17288 ft | 333 kts | 255° |
| 2026-04-20 20:31 | 43.21701 | -7.37174 | 17367 ft | 340 kts | 271° |
| 2026-04-20 20:32 | 43.22168 | -7.40379 | 17405 ft | 347 kts | 284° |
| 2026-04-20 20:32 | 43.22912 | -7.43552 | 17379 ft | 351 kts | 284° |
| 2026-04-20 20:32 | 43.23620 | -7.46749 | 17028 ft | 351 kts | 283° |
| 2026-04-20 20:32 | 43.24267 | -7.49921 | 16422 ft | 350 kts | 281° |
| 2026-04-20 20:33 | 43.24877 | -7.53134 | 15836 ft | 341 kts | 280° |
| 2026-04-20 20:33 | 43.25437 | -7.56186 | 15470 ft | 324 kts | 279° |
| 2026-04-20 20:33 | 43.25982 | -7.59208 | 15043 ft | 330 kts | 279° |
| 2026-04-20 20:33 | 43.26537 | -7.62283 | 14629 ft | 334 kts | 279° |
| 2026-04-20 20:34 | 43.27110 | -7.65391 | 14237 ft | 337 kts | 279° |
| 2026-04-20 20:34 | 43.27717 | -7.68501 | 13835 ft | 339 kts | 281° |
| 2026-04-20 20:34 | 43.28355 | -7.71621 | 13291 ft | 340 kts | 281° |
| 2026-04-20 20:34 | 43.28980 | -7.74664 | 12854 ft | 331 kts | 281° |
| 2026-04-20 20:35 | 43.29582 | -7.77664 | 12428 ft | 322 kts | 281° |
| 2026-04-20 20:35 | 43.30158 | -7.80594 | 12008 ft | 314 kts | 280° |
| 2026-04-20 20:35 | 43.30714 | -7.83455 | 11593 ft | 307 kts | 281° |
| 2026-04-20 20:35 | 43.31258 | -7.86259 | 11193 ft | 303 kts | 281° |
| 2026-04-20 20:36 | 43.31801 | -7.89062 | 10774 ft | 304 kts | 281° |
| 2026-04-20 20:36 | 43.32342 | -7.91872 | 10362 ft | 305 kts | 281° |
| 2026-04-20 20:36 | 43.32881 | -7.94671 | 10099 ft | 300 kts | 281° |
| 2026-04-20 20:36 | 43.33402 | -7.97363 | 9930 ft | 292 kts | 281° |
| 2026-04-20 20:37 | 43.33915 | -8.00008 | 9807 ft | 282 kts | 281° |
| 2026-04-20 20:37 | 43.34417 | -8.02599 | 9438 ft | 280 kts | 281° |
| 2026-04-20 20:37 | 43.34914 | -8.05173 | 8942 ft | 278 kts | 281° |
| 2026-04-20 20:37 | 43.35404 | -8.07734 | 8423 ft | 277 kts | 281° |
| 2026-04-20 20:38 | 43.35929 | -8.10284 | 7850 ft | 279 kts | 289° |
| 2026-04-20 20:38 | 43.37079 | -8.12425 | 7296 ft | 282 kts | 320° |
| 2026-04-20 20:38 | 43.38851 | -8.13454 | 6777 ft | 277 kts | 353° |
| 2026-04-20 20:38 | 43.40755 | -8.13347 | 6270 ft | 275 kts | 6° |
| 2026-04-20 20:39 | 43.42640 | -8.13166 | 5757 ft | 268 kts | 356° |
| 2026-04-20 20:39 | 43.44426 | -8.13527 | 5249 ft | 258 kts | 341° |
| 2026-04-20 20:39 | 43.46038 | -8.14456 | 4822 ft | 245 kts | 327° |
| 2026-04-20 20:39 | 43.47418 | -8.15737 | 4422 ft | 233 kts | 315° |
| 2026-04-20 20:40 | 43.48344 | -8.17458 | 4343 ft | 220 kts | 289° |
| 2026-04-20 20:40 | 43.48646 | -8.19462 | 4335 ft | 211 kts | 266° |
| 2026-04-20 20:40 | 43.48379 | -8.21408 | 4262 ft | 203 kts | 245° |
| 2026-04-20 20:40 | 43.47670 | -8.23047 | 4058 ft | 199 kts | 226° |
| 2026-04-20 20:41 | 43.46611 | -8.24243 | 3808 ft | 198 kts | 211° |
| 2026-04-20 20:41 | 43.45439 | -8.25185 | 3572 ft | 198 kts | 208° |
| 2026-04-20 20:41 | 43.44253 | -8.26136 | 3329 ft | 196 kts | 209° |
| 2026-04-20 20:41 | 43.43104 | -8.27102 | 3056 ft | 191 kts | 209° |
| 2026-04-20 20:42 | 43.41975 | -8.28038 | 2751 ft | 188 kts | 208° |
| 2026-04-20 20:42 | 43.40876 | -8.28929 | 2564 ft | 177 kts | 208° |
| 2026-04-20 20:42 | 43.39849 | -8.29796 | 2347 ft | 171 kts | 208° |
| 2026-04-20 20:42 | 43.38835 | -8.30642 | 2089 ft | 171 kts | 208° |
| 2026-04-20 20:43 | 43.37808 | -8.31479 | 1848 ft | 172 kts | 208° |
| 2026-04-20 20:43 | 43.36782 | -8.32320 | 1623 ft | 173 kts | 210° |
| 2026-04-20 20:43 | 43.35762 | -8.33162 | 1475 ft | 169 kts | 210° |
| 2026-04-20 20:43 | 43.34788 | -8.33967 | 1308 ft | 156 kts | 210° |
| 2026-04-20 20:44 | 43.33892 | -8.34698 | 1096 ft | 147 kts | 209° |
| 2026-04-20 20:44 | 43.33002 | -8.35431 | 840 ft | 151 kts | 209° |
| 2026-04-20 20:44 | 43.32094 | -8.36174 | 631 ft | 156 kts | 210° |
| 2026-04-20 20:44 | 43.31170 | -8.36933 | 454 ft | 152 kts | 211° |
| 2026-04-20 20:45 | 43.30312 | -8.37640 | 349 ft | 133 kts | 210° |
| 2026-04-20 20:45 | 43.29663 | -8.38163 | 337 ft | 73 kts | 211° |
| 2026-04-20 20:45 | 43.29346 | -8.38419 | 335 ft | 28 kts | 211° |
| 2026-04-20 20:45 | 43.29241 | -8.38555 | 337 ft | 15 kts | 242° |
| 2026-04-20 20:46 | 43.29192 | -8.38556 | 338 ft | 10 kts | 85° |
| 2026-04-20 20:46 | 43.29243 | -8.38504 | 335 ft | 11 kts | 28° |
| 2026-04-20 20:46 | 43.29355 | -8.38417 | 335 ft | 24 kts | 30° |
| 2026-04-20 20:46 | 43.29507 | -8.38294 | 338 ft | 26 kts | 31° |
| 2026-04-20 20:47 | 43.29664 | -8.38164 | 337 ft | 27 kts | 31° |
| 2026-04-20 20:47 | 43.29835 | -8.38021 | 345 ft | 27 kts | 31° |
| 2026-04-20 20:47 | 43.29938 | -8.37993 | 349 ft | 13 kts | 323° |
| 2026-04-20 20:47 | 43.29994 | -8.38068 | 337 ft | 10 kts | 329° |
| 2026-04-20 20:48 | 43.30064 | -8.38073 | 339 ft | 11 kts | 9° |
| 2026-04-20 20:48 | 43.30119 | -8.38044 | 340 ft | 6 kts | 23° |
| 2026-04-20 20:48 | 43.30147 | -8.38060 | 338 ft | 4 kts | 323° |
| 2026-04-20 20:48 | 43.30161 | -8.38073 | 335 ft | 2 kts | 324° |
| 2026-04-20 20:49 | 43.30161 | -8.38074 | 335 ft | 0 kts | 324° |